sensor_id;sensor_type;location;lat;lon;timestamp;P1;durP1;ratioP1;P2;durP2;ratioP2
17830;SDS011;9040;51.332;12.406;2022-08-03T00:02:00;13.90;;;4.53;;
17830;SDS011;9040;51.332;12.406;2022-08-03T00:04:29;6.00;;;4.43;;
17830;SDS011;9040;51.332;12.406;2022-08-03T00:06:56;9.67;;;4.70;;
17830;SDS011;9040;51.332;12.406;2022-08-03T00:09:23;10.40;;;4.70;;
17830;SDS011;9040;51.332;12.406;2022-08-03T00:11:49;6.20;;;4.23;;
17830;SDS011;9040;51.332;12.406;2022-08-03T00:14:16;11.03;;;4.30;;
17830;SDS011;9040;51.332;12.406;2022-08-03T00:16:43;5.13;;;3.67;;
17830;SDS011;9040;51.332;12.406;2022-08-03T00:19:10;11.33;;;4.90;;
17830;SDS011;9040;51.332;12.406;2022-08-03T00:21:38;15.37;;;5.20;;
17830;SDS011;9040;51.332;12.406;2022-08-03T00:24:05;5.10;;;4.33;;
17830;SDS011;9040;51.332;12.406;2022-08-03T00:26:32;9.27;;;4.90;;
17830;SDS011;9040;51.332;12.406;2022-08-03T00:28:59;8.63;;;4.00;;
17830;SDS011;9040;51.332;12.406;2022-08-03T00:31:26;10.43;;;4.60;;
17830;SDS011;9040;51.332;12.406;2022-08-03T00:33:53;15.40;;;4.27;;
17830;SDS011;9040;51.332;12.406;2022-08-03T00:36:20;8.23;;;4.43;;
17830;SDS011;9040;51.332;12.406;2022-08-03T00:38:48;10.63;;;4.70;;
17830;SDS011;9040;51.332;12.406;2022-08-03T00:41:15;11.80;;;4.40;;
17830;SDS011;9040;51.332;12.406;2022-08-03T00:43:42;8.23;;;4.20;;
17830;SDS011;9040;51.332;12.406;2022-08-03T00:46:11;9.10;;;4.00;;
17830;SDS011;9040;51.332;12.406;2022-08-03T00:48:38;10.23;;;4.97;;
17830;SDS011;9040;51.332;12.406;2022-08-03T00:51:05;10.03;;;5.20;;
17830;SDS011;9040;51.332;12.406;2022-08-03T00:53:33;10.00;;;4.13;;
17830;SDS011;9040;51.332;12.406;2022-08-03T00:56:02;7.67;;;4.17;;
17830;SDS011;9040;51.332;12.406;2022-08-03T00:58:29;4.70;;;3.40;;
17830;SDS011;9040;51.332;12.406;2022-08-03T01:00:56;9.13;;;4.37;;
17830;SDS011;9040;51.332;12.406;2022-08-03T01:03:23;10.23;;;4.00;;
17830;SDS011;9040;51.332;12.406;2022-08-03T01:05:51;6.13;;;4.10;;
17830;SDS011;9040;51.332;12.406;2022-08-03T01:08:22;10.47;;;4.60;;
17830;SDS011;9040;51.332;12.406;2022-08-03T01:11:04;9.27;;;5.10;;
17830;SDS011;9040;51.332;12.406;2022-08-03T01:13:38;5.80;;;4.40;;
17830;SDS011;9040;51.332;12.406;2022-08-03T01:16:18;14.00;;;4.13;;
17830;SDS011;9040;51.332;12.406;2022-08-03T01:18:51;4.70;;;3.90;;
17830;SDS011;9040;51.332;12.406;2022-08-03T01:21:22;11.13;;;4.53;;
17830;SDS011;9040;51.332;12.406;2022-08-03T01:24:05;4.40;;;3.90;;
17830;SDS011;9040;51.332;12.406;2022-08-03T01:26:52;8.13;;;4.33;;
17830;SDS011;9040;51.332;12.406;2022-08-03T01:32:18;4.53;;;4.13;;
17830;SDS011;9040;51.332;12.406;2022-08-03T01:34:49;13.20;;;4.77;;
17830;SDS011;9040;51.332;12.406;2022-08-03T01:37:21;8.83;;;3.70;;
17830;SDS011;9040;51.332;12.406;2022-08-03T01:39:51;9.90;;;4.30;;
17830;SDS011;9040;51.332;12.406;2022-08-03T01:42:23;7.13;;;3.77;;
17830;SDS011;9040;51.332;12.406;2022-08-03T01:44:52;6.20;;;4.27;;
17830;SDS011;9040;51.332;12.406;2022-08-03T01:47:21;8.70;;;3.73;;
17830;SDS011;9040;51.332;12.406;2022-08-03T01:49:49;10.63;;;4.50;;
17830;SDS011;9040;51.332;12.406;2022-08-03T01:52:17;6.97;;;4.40;;
17830;SDS011;9040;51.332;12.406;2022-08-03T01:54:46;10.73;;;4.23;;
17830;SDS011;9040;51.332;12.406;2022-08-03T01:57:15;10.07;;;4.50;;
17830;SDS011;9040;51.332;12.406;2022-08-03T01:59:45;15.00;;;4.17;;
17830;SDS011;9040;51.332;12.406;2022-08-03T02:02:16;14.10;;;5.27;;
17830;SDS011;9040;51.332;12.406;2022-08-03T02:04:44;7.60;;;4.27;;
17830;SDS011;9040;51.332;12.406;2022-08-03T02:07:14;15.20;;;4.40;;
17830;SDS011;9040;51.332;12.406;2022-08-03T02:09:43;10.40;;;3.70;;
17830;SDS011;9040;51.332;12.406;2022-08-03T02:12:12;13.43;;;5.00;;
17830;SDS011;9040;51.332;12.406;2022-08-03T02:14:40;10.67;;;3.47;;
17830;SDS011;9040;51.332;12.406;2022-08-03T02:17:09;7.13;;;4.23;;
17830;SDS011;9040;51.332;12.406;2022-08-03T02:19:39;12.23;;;3.97;;
17830;SDS011;9040;51.332;12.406;2022-08-03T02:22:09;7.90;;;4.57;;
17830;SDS011;9040;51.332;12.406;2022-08-03T02:24:37;13.33;;;4.63;;
17830;SDS011;9040;51.332;12.406;2022-08-03T02:27:06;9.73;;;5.00;;
17830;SDS011;9040;51.332;12.406;2022-08-03T02:29:40;19.40;;;6.07;;
17830;SDS011;9040;51.332;12.406;2022-08-03T02:32:13;14.90;;;5.83;;
17830;SDS011;9040;51.332;12.406;2022-08-03T02:34:44;14.30;;;5.93;;
17830;SDS011;9040;51.332;12.406;2022-08-03T02:37:14;10.90;;;5.60;;
17830;SDS011;9040;51.332;12.406;2022-08-03T02:39:43;14.03;;;4.77;;
17830;SDS011;9040;51.332;12.406;2022-08-03T02:42:12;13.53;;;4.83;;
17830;SDS011;9040;51.332;12.406;2022-08-03T02:44:40;8.73;;;4.17;;
17830;SDS011;9040;51.332;12.406;2022-08-03T02:47:12;14.50;;;5.60;;
17830;SDS011;9040;51.332;12.406;2022-08-03T02:49:40;9.67;;;5.47;;
17830;SDS011;9040;51.332;12.406;2022-08-03T02:52:10;13.30;;;4.83;;
17830;SDS011;9040;51.332;12.406;2022-08-03T02:54:38;19.20;;;5.00;;
17830;SDS011;9040;51.332;12.406;2022-08-03T02:57:06;17.17;;;5.97;;
17830;SDS011;9040;51.332;12.406;2022-08-03T02:59:35;10.37;;;4.60;;
17830;SDS011;9040;51.332;12.406;2022-08-03T03:02:03;19.23;;;5.87;;
17830;SDS011;9040;51.332;12.406;2022-08-03T03:04:31;32.47;;;5.40;;
17830;SDS011;9040;51.332;12.406;2022-08-03T03:07:00;13.60;;;5.57;;
17830;SDS011;9040;51.332;12.406;2022-08-03T03:09:29;11.03;;;5.30;;
17830;SDS011;9040;51.332;12.406;2022-08-03T03:11:56;15.47;;;4.47;;
17830;SDS011;9040;51.332;12.406;2022-08-03T03:14:24;34.10;;;6.10;;
17830;SDS011;9040;51.332;12.406;2022-08-03T03:16:53;12.60;;;5.33;;
17830;SDS011;9040;51.332;12.406;2022-08-03T03:19:21;24.63;;;5.10;;
17830;SDS011;9040;51.332;12.406;2022-08-03T03:21:49;21.77;;;5.17;;
17830;SDS011;9040;51.332;12.406;2022-08-03T03:24:18;7.57;;;5.23;;
17830;SDS011;9040;51.332;12.406;2022-08-03T03:26:47;9.80;;;4.80;;
17830;SDS011;9040;51.332;12.406;2022-08-03T03:29:14;28.83;;;5.13;;
17830;SDS011;9040;51.332;12.406;2022-08-03T03:31:41;23.93;;;5.97;;
17830;SDS011;9040;51.332;12.406;2022-08-03T03:34:08;39.17;;;6.40;;
17830;SDS011;9040;51.332;12.406;2022-08-03T03:36:35;13.83;;;4.70;;
17830;SDS011;9040;51.332;12.406;2022-08-03T03:39:02;13.27;;;5.67;;
17830;SDS011;9040;51.332;12.406;2022-08-03T03:41:29;14.77;;;5.67;;
17830;SDS011;9040;51.332;12.406;2022-08-03T03:43:58;11.93;;;6.93;;
17830;SDS011;9040;51.332;12.406;2022-08-03T03:46:25;7.83;;;5.00;;
17830;SDS011;9040;51.332;12.406;2022-08-03T03:48:52;19.20;;;5.80;;
17830;SDS011;9040;51.332;12.406;2022-08-03T03:51:19;12.10;;;5.60;;
17830;SDS011;9040;51.332;12.406;2022-08-03T03:53:55;18.10;;;5.33;;
17830;SDS011;9040;51.332;12.406;2022-08-03T03:56:22;11.70;;;5.30;;
17830;SDS011;9040;51.332;12.406;2022-08-03T03:58:49;12.20;;;4.83;;
17830;SDS011;9040;51.332;12.406;2022-08-03T04:01:18;17.27;;;4.63;;
17830;SDS011;9040;51.332;12.406;2022-08-03T04:03:45;8.70;;;5.70;;
17830;SDS011;9040;51.332;12.406;2022-08-03T04:06:12;10.00;;;5.20;;
17830;SDS011;9040;51.332;12.406;2022-08-03T04:08:57;16.30;;;5.27;;
17830;SDS011;9040;51.332;12.406;2022-08-03T04:11:39;23.10;;;5.80;;
17830;SDS011;9040;51.332;12.406;2022-08-03T04:14:09;16.93;;;6.07;;
17830;SDS011;9040;51.332;12.406;2022-08-03T04:16:42;9.83;;;6.23;;
17830;SDS011;9040;51.332;12.406;2022-08-03T04:19:13;15.07;;;7.60;;
17830;SDS011;9040;51.332;12.406;2022-08-03T04:21:45;85.63;;;8.33;;
17830;SDS011;9040;51.332;12.406;2022-08-03T04:24:15;8.13;;;5.00;;
17830;SDS011;9040;51.332;12.406;2022-08-03T04:26:44;14.10;;;4.80;;
17830;SDS011;9040;51.332;12.406;2022-08-03T04:29:14;22.33;;;6.23;;
17830;SDS011;9040;51.332;12.406;2022-08-03T04:31:43;14.93;;;4.43;;
17830;SDS011;9040;51.332;12.406;2022-08-03T04:34:11;19.53;;;4.67;;
17830;SDS011;9040;51.332;12.406;2022-08-03T04:36:42;15.07;;;7.07;;
17830;SDS011;9040;51.332;12.406;2022-08-03T04:39:15;8.03;;;4.83;;
17830;SDS011;9040;51.332;12.406;2022-08-03T04:41:44;7.87;;;4.93;;
17830;SDS011;9040;51.332;12.406;2022-08-03T04:44:13;15.13;;;5.33;;
17830;SDS011;9040;51.332;12.406;2022-08-03T04:46:43;15.30;;;5.07;;
17830;SDS011;9040;51.332;12.406;2022-08-03T04:49:10;13.87;;;6.63;;
17830;SDS011;9040;51.332;12.406;2022-08-03T04:51:38;12.90;;;6.20;;
17830;SDS011;9040;51.332;12.406;2022-08-03T04:54:06;17.13;;;5.23;;
17830;SDS011;9040;51.332;12.406;2022-08-03T04:56:38;21.87;;;5.50;;
17830;SDS011;9040;51.332;12.406;2022-08-03T04:59:05;13.70;;;5.20;;
17830;SDS011;9040;51.332;12.406;2022-08-03T05:01:32;8.20;;;4.97;;
17830;SDS011;9040;51.332;12.406;2022-08-03T05:04:00;13.30;;;6.03;;
17830;SDS011;9040;51.332;12.406;2022-08-03T05:06:28;28.37;;;5.93;;
17830;SDS011;9040;51.332;12.406;2022-08-03T05:08:54;10.53;;;5.20;;
17830;SDS011;9040;51.332;12.406;2022-08-03T05:11:21;30.63;;;5.30;;
17830;SDS011;9040;51.332;12.406;2022-08-03T05:13:48;52.17;;;7.43;;
17830;SDS011;9040;51.332;12.406;2022-08-03T05:16:15;10.53;;;4.13;;
17830;SDS011;9040;51.332;12.406;2022-08-03T05:18:43;17.13;;;4.97;;
17830;SDS011;9040;51.332;12.406;2022-08-03T05:21:11;13.43;;;5.20;;
17830;SDS011;9040;51.332;12.406;2022-08-03T05:23:40;11.43;;;4.80;;
17830;SDS011;9040;51.332;12.406;2022-08-03T05:26:07;9.77;;;4.70;;
17830;SDS011;9040;51.332;12.406;2022-08-03T05:28:35;20.60;;;4.20;;
17830;SDS011;9040;51.332;12.406;2022-08-03T05:31:03;26.73;;;5.63;;
17830;SDS011;9040;51.332;12.406;2022-08-03T05:33:29;14.10;;;4.70;;
17830;SDS011;9040;51.332;12.406;2022-08-03T05:35:56;14.43;;;5.10;;
17830;SDS011;9040;51.332;12.406;2022-08-03T05:38:25;18.30;;;6.67;;
17830;SDS011;9040;51.332;12.406;2022-08-03T05:40:52;15.87;;;5.50;;
17830;SDS011;9040;51.332;12.406;2022-08-03T05:43:19;18.23;;;5.80;;
17830;SDS011;9040;51.332;12.406;2022-08-03T05:45:46;9.30;;;5.50;;
17830;SDS011;9040;51.332;12.406;2022-08-03T05:48:13;12.00;;;3.83;;
17830;SDS011;9040;51.332;12.406;2022-08-03T05:50:40;18.07;;;4.20;;
17830;SDS011;9040;51.332;12.406;2022-08-03T05:53:07;19.43;;;4.53;;
17830;SDS011;9040;51.332;12.406;2022-08-03T05:55:35;14.73;;;4.83;;
17830;SDS011;9040;51.332;12.406;2022-08-03T05:58:02;13.40;;;4.63;;
17830;SDS011;9040;51.332;12.406;2022-08-03T06:00:29;6.73;;;3.20;;
17830;SDS011;9040;51.332;12.406;2022-08-03T06:02:56;12.23;;;5.50;;
17830;SDS011;9040;51.332;12.406;2022-08-03T06:05:23;10.53;;;3.83;;
17830;SDS011;9040;51.332;12.406;2022-08-03T06:07:52;12.43;;;4.07;;
17830;SDS011;9040;51.332;12.406;2022-08-03T06:10:19;9.83;;;5.13;;
17830;SDS011;9040;51.332;12.406;2022-08-03T06:12:47;7.50;;;4.03;;
17830;SDS011;9040;51.332;12.406;2022-08-03T06:15:15;13.37;;;4.83;;
17830;SDS011;9040;51.332;12.406;2022-08-03T06:17:44;15.10;;;4.80;;
17830;SDS011;9040;51.332;12.406;2022-08-03T06:20:12;8.13;;;4.50;;
17830;SDS011;9040;51.332;12.406;2022-08-03T06:22:41;14.23;;;4.23;;
17830;SDS011;9040;51.332;12.406;2022-08-03T06:25:08;9.37;;;5.20;;
17830;SDS011;9040;51.332;12.406;2022-08-03T06:27:35;12.20;;;4.80;;
17830;SDS011;9040;51.332;12.406;2022-08-03T06:30:06;12.13;;;3.80;;
17830;SDS011;9040;51.332;12.406;2022-08-03T06:32:34;6.13;;;3.60;;
17830;SDS011;9040;51.332;12.406;2022-08-03T06:35:02;11.23;;;3.70;;
17830;SDS011;9040;51.332;12.406;2022-08-03T06:37:30;13.07;;;2.90;;
17830;SDS011;9040;51.332;12.406;2022-08-03T06:39:57;7.53;;;4.20;;
17830;SDS011;9040;51.332;12.406;2022-08-03T06:42:23;11.83;;;3.63;;
17830;SDS011;9040;51.332;12.406;2022-08-03T06:44:50;6.10;;;2.40;;
17830;SDS011;9040;51.332;12.406;2022-08-03T06:47:18;9.93;;;3.00;;
17830;SDS011;9040;51.332;12.406;2022-08-03T06:49:45;14.27;;;3.33;;
17830;SDS011;9040;51.332;12.406;2022-08-03T06:52:12;11.57;;;2.73;;
17830;SDS011;9040;51.332;12.406;2022-08-03T06:54:39;9.77;;;3.63;;
17830;SDS011;9040;51.332;12.406;2022-08-03T06:57:06;8.83;;;3.03;;
17830;SDS011;9040;51.332;12.406;2022-08-03T06:59:35;15.20;;;3.20;;
17830;SDS011;9040;51.332;12.406;2022-08-03T07:02:02;6.93;;;3.07;;
17830;SDS011;9040;51.332;12.406;2022-08-03T07:04:30;8.20;;;2.47;;
17830;SDS011;9040;51.332;12.406;2022-08-03T07:06:57;5.70;;;3.03;;
17830;SDS011;9040;51.332;12.406;2022-08-03T07:09:24;3.97;;;2.47;;
17830;SDS011;9040;51.332;12.406;2022-08-03T07:11:51;5.33;;;2.97;;
17830;SDS011;9040;51.332;12.406;2022-08-03T07:14:18;5.13;;;2.90;;
17830;SDS011;9040;51.332;12.406;2022-08-03T07:16:45;16.90;;;5.87;;
17830;SDS011;9040;51.332;12.406;2022-08-03T07:19:11;9.40;;;3.03;;
17830;SDS011;9040;51.332;12.406;2022-08-03T07:21:40;6.30;;;2.40;;
17830;SDS011;9040;51.332;12.406;2022-08-03T07:24:07;9.53;;;2.73;;
17830;SDS011;9040;51.332;12.406;2022-08-03T07:26:34;7.67;;;2.30;;
17830;SDS011;9040;51.332;12.406;2022-08-03T07:29:00;10.33;;;3.07;;
17830;SDS011;9040;51.332;12.406;2022-08-03T07:31:27;5.90;;;2.10;;
17830;SDS011;9040;51.332;12.406;2022-08-03T07:33:54;12.70;;;3.40;;
17830;SDS011;9040;51.332;12.406;2022-08-03T07:36:21;9.93;;;2.80;;
17830;SDS011;9040;51.332;12.406;2022-08-03T07:38:50;10.93;;;2.50;;
17830;SDS011;9040;51.332;12.406;2022-08-03T07:41:16;9.77;;;2.43;;
17830;SDS011;9040;51.332;12.406;2022-08-03T07:43:43;6.03;;;1.90;;
17830;SDS011;9040;51.332;12.406;2022-08-03T07:46:10;7.70;;;1.97;;
17830;SDS011;9040;51.332;12.406;2022-08-03T07:48:39;13.63;;;2.40;;
17830;SDS011;9040;51.332;12.406;2022-08-03T07:51:06;3.80;;;2.23;;
17830;SDS011;9040;51.332;12.406;2022-08-03T07:53:33;2.70;;;2.20;;
17830;SDS011;9040;51.332;12.406;2022-08-03T07:56:01;17.03;;;2.90;;
17830;SDS011;9040;51.332;12.406;2022-08-03T07:58:28;10.30;;;2.00;;
17830;SDS011;9040;51.332;12.406;2022-08-03T08:00:55;4.20;;;2.17;;
17830;SDS011;9040;51.332;12.406;2022-08-03T08:03:22;3.90;;;2.43;;
17830;SDS011;9040;51.332;12.406;2022-08-03T08:05:50;7.47;;;3.20;;
17830;SDS011;9040;51.332;12.406;2022-08-03T08:08:18;5.53;;;2.53;;
17830;SDS011;9040;51.332;12.406;2022-08-03T08:10:45;3.60;;;2.13;;
17830;SDS011;9040;51.332;12.406;2022-08-03T08:13:14;2.57;;;1.90;;
17830;SDS011;9040;51.332;12.406;2022-08-03T08:15:40;4.30;;;2.20;;
17830;SDS011;9040;51.332;12.406;2022-08-03T08:18:07;5.80;;;3.30;;
17830;SDS011;9040;51.332;12.406;2022-08-03T08:20:34;6.90;;;1.47;;
17830;SDS011;9040;51.332;12.406;2022-08-03T08:23:04;21.20;;;2.23;;
17830;SDS011;9040;51.332;12.406;2022-08-03T08:25:33;13.43;;;2.30;;
17830;SDS011;9040;51.332;12.406;2022-08-03T08:28:00;21.97;;;2.10;;
17830;SDS011;9040;51.332;12.406;2022-08-03T08:30:30;7.60;;;1.87;;
17830;SDS011;9040;51.332;12.406;2022-08-03T08:32:58;2.37;;;2.17;;
17830;SDS011;9040;51.332;12.406;2022-08-03T08:35:25;10.87;;;2.57;;
17830;SDS011;9040;51.332;12.406;2022-08-03T08:37:51;4.60;;;2.60;;
17830;SDS011;9040;51.332;12.406;2022-08-03T08:40:19;6.73;;;2.27;;
17830;SDS011;9040;51.332;12.406;2022-08-03T08:42:47;13.67;;;2.10;;
17830;SDS011;9040;51.332;12.406;2022-08-03T08:45:14;9.30;;;2.50;;
17830;SDS011;9040;51.332;12.406;2022-08-03T08:47:45;6.63;;;2.90;;
17830;SDS011;9040;51.332;12.406;2022-08-03T08:50:13;10.20;;;3.07;;
17830;SDS011;9040;51.332;12.406;2022-08-03T08:52:44;5.97;;;3.13;;
17830;SDS011;9040;51.332;12.406;2022-08-03T08:55:15;3.63;;;1.67;;
17830;SDS011;9040;51.332;12.406;2022-08-03T08:57:46;8.70;;;2.60;;
17830;SDS011;9040;51.332;12.406;2022-08-03T09:00:15;9.87;;;2.37;;
17830;SDS011;9040;51.332;12.406;2022-08-03T09:02:43;8.80;;;2.70;;
17830;SDS011;9040;51.332;12.406;2022-08-03T09:05:12;2.70;;;2.00;;
17830;SDS011;9040;51.332;12.406;2022-08-03T09:07:40;7.70;;;1.77;;
17830;SDS011;9040;51.332;12.406;2022-08-03T09:10:08;4.30;;;2.00;;
17830;SDS011;9040;51.332;12.406;2022-08-03T09:12:37;9.10;;;2.97;;
17830;SDS011;9040;51.332;12.406;2022-08-03T09:15:15;1.70;;;1.60;;
17830;SDS011;9040;51.332;12.406;2022-08-03T09:17:45;2.00;;;1.80;;
17830;SDS011;9040;51.332;12.406;2022-08-03T09:20:12;4.20;;;2.27;;
17830;SDS011;9040;51.332;12.406;2022-08-03T09:22:50;5.60;;;1.90;;
17830;SDS011;9040;51.332;12.406;2022-08-03T09:25:19;12.80;;;2.40;;
17830;SDS011;9040;51.332;12.406;2022-08-03T09:27:52;3.23;;;1.90;;
17830;SDS011;9040;51.332;12.406;2022-08-03T09:30:19;5.23;;;1.97;;
17830;SDS011;9040;51.332;12.406;2022-08-03T09:32:47;2.10;;;2.00;;
17830;SDS011;9040;51.332;12.406;2022-08-03T09:35:14;4.43;;;2.20;;
17830;SDS011;9040;51.332;12.406;2022-08-03T09:37:41;5.70;;;2.00;;
17830;SDS011;9040;51.332;12.406;2022-08-03T09:40:08;8.30;;;2.23;;
17830;SDS011;9040;51.332;12.406;2022-08-03T09:42:36;2.63;;;1.73;;
17830;SDS011;9040;51.332;12.406;2022-08-03T09:45:24;2.10;;;1.30;;
17830;SDS011;9040;51.332;12.406;2022-08-03T09:47:53;4.33;;;1.90;;
17830;SDS011;9040;51.332;12.406;2022-08-03T09:50:21;2.13;;;1.50;;
17830;SDS011;9040;51.332;12.406;2022-08-03T09:52:48;5.07;;;1.37;;
17830;SDS011;9040;51.332;12.406;2022-08-03T09:55:16;2.90;;;1.87;;
17830;SDS011;9040;51.332;12.406;2022-08-03T09:57:47;2.27;;;1.80;;
17830;SDS011;9040;51.332;12.406;2022-08-03T10:00:15;2.30;;;1.43;;
17830;SDS011;9040;51.332;12.406;2022-08-03T10:02:43;2.10;;;1.63;;
17830;SDS011;9040;51.332;12.406;2022-08-03T10:05:12;1.93;;;1.47;;
17830;SDS011;9040;51.332;12.406;2022-08-03T10:07:42;9.63;;;2.00;;
17830;SDS011;9040;51.332;12.406;2022-08-03T10:10:10;9.63;;;1.70;;
17830;SDS011;9040;51.332;12.406;2022-08-03T10:12:37;6.43;;;1.83;;
17830;SDS011;9040;51.332;12.406;2022-08-03T10:15:05;3.63;;;2.50;;
17830;SDS011;9040;51.332;12.406;2022-08-03T10:17:33;2.57;;;2.20;;
17830;SDS011;9040;51.332;12.406;2022-08-03T10:20:00;2.13;;;1.73;;
17830;SDS011;9040;51.332;12.406;2022-08-03T10:22:31;6.40;;;1.83;;
17830;SDS011;9040;51.332;12.406;2022-08-03T10:24:59;2.33;;;2.23;;
17830;SDS011;9040;51.332;12.406;2022-08-03T10:27:32;6.60;;;3.00;;
17830;SDS011;9040;51.332;12.406;2022-08-03T10:30:02;6.73;;;1.63;;
17830;SDS011;9040;51.332;12.406;2022-08-03T10:32:33;19.93;;;2.23;;
17830;SDS011;9040;51.332;12.406;2022-08-03T10:35:04;7.30;;;1.80;;
17830;SDS011;9040;51.332;12.406;2022-08-03T10:37:36;8.70;;;2.50;;
17830;SDS011;9040;51.332;12.406;2022-08-03T10:40:07;4.00;;;1.73;;
17830;SDS011;9040;51.332;12.406;2022-08-03T10:42:38;3.60;;;2.70;;
17830;SDS011;9040;51.332;12.406;2022-08-03T10:45:12;29.67;;;2.13;;
17830;SDS011;9040;51.332;12.406;2022-08-03T10:47:44;6.73;;;1.57;;
17830;SDS011;9040;51.332;12.406;2022-08-03T10:50:12;3.40;;;2.50;;
17830;SDS011;9040;51.332;12.406;2022-08-03T10:52:54;3.87;;;2.30;;
17830;SDS011;9040;51.332;12.406;2022-08-03T10:55:31;3.10;;;1.83;;
17830;SDS011;9040;51.332;12.406;2022-08-03T11:01:17;1.63;;;1.40;;
17830;SDS011;9040;51.332;12.406;2022-08-03T11:04:14;2.70;;;1.50;;
17830;SDS011;9040;51.332;12.406;2022-08-03T11:06:43;33.33;;;3.93;;
17830;SDS011;9040;51.332;12.406;2022-08-03T11:09:17;3.53;;;2.60;;
17830;SDS011;9040;51.332;12.406;2022-08-03T11:11:45;2.53;;;1.57;;
17830;SDS011;9040;51.332;12.406;2022-08-03T11:14:14;3.90;;;1.77;;
17830;SDS011;9040;51.332;12.406;2022-08-03T11:16:44;12.93;;;2.80;;
17830;SDS011;9040;51.332;12.406;2022-08-03T11:19:14;21.87;;;2.33;;
17830;SDS011;9040;51.332;12.406;2022-08-03T11:21:55;3.50;;;1.43;;
17830;SDS011;9040;51.332;12.406;2022-08-03T11:27:49;9.87;;;2.03;;
17830;SDS011;9040;51.332;12.406;2022-08-03T11:30:54;9.63;;;2.77;;
17830;SDS011;9040;51.332;12.406;2022-08-03T11:33:28;3.07;;;1.83;;
17830;SDS011;9040;51.332;12.406;2022-08-03T11:35:59;14.07;;;2.33;;
17830;SDS011;9040;51.332;12.406;2022-08-03T11:38:26;5.57;;;1.80;;
17830;SDS011;9040;51.332;12.406;2022-08-03T11:40:53;9.40;;;2.50;;
17830;SDS011;9040;51.332;12.406;2022-08-03T11:46:11;8.20;;;1.73;;
17830;SDS011;9040;51.332;12.406;2022-08-03T11:48:47;6.80;;;1.40;;
17830;SDS011;9040;51.332;12.406;2022-08-03T11:51:20;5.13;;;1.33;;
17830;SDS011;9040;51.332;12.406;2022-08-03T11:53:51;11.43;;;1.90;;
17830;SDS011;9040;51.332;12.406;2022-08-03T11:56:19;4.80;;;1.70;;
17830;SDS011;9040;51.332;12.406;2022-08-03T11:58:48;5.27;;;1.90;;
17830;SDS011;9040;51.332;12.406;2022-08-03T12:01:16;5.33;;;1.40;;
17830;SDS011;9040;51.332;12.406;2022-08-03T12:03:44;3.20;;;1.50;;
17830;SDS011;9040;51.332;12.406;2022-08-03T12:06:12;1.80;;;1.70;;
17830;SDS011;9040;51.332;12.406;2022-08-03T12:08:41;8.07;;;2.00;;
17830;SDS011;9040;51.332;12.406;2022-08-03T12:11:10;7.13;;;1.60;;
17830;SDS011;9040;51.332;12.406;2022-08-03T12:13:39;2.03;;;1.80;;
17830;SDS011;9040;51.332;12.406;2022-08-03T12:16:09;4.60;;;1.50;;
17830;SDS011;9040;51.332;12.406;2022-08-03T12:18:36;8.97;;;2.40;;
17830;SDS011;9040;51.332;12.406;2022-08-03T12:21:04;9.13;;;2.67;;
17830;SDS011;9040;51.332;12.406;2022-08-03T12:23:33;8.30;;;1.80;;
17830;SDS011;9040;51.332;12.406;2022-08-03T12:26:01;3.33;;;1.40;;
17830;SDS011;9040;51.332;12.406;2022-08-03T12:28:28;4.37;;;1.70;;
17830;SDS011;9040;51.332;12.406;2022-08-03T12:30:59;3.77;;;1.60;;
17830;SDS011;9040;51.332;12.406;2022-08-03T12:33:29;2.90;;;1.83;;
17830;SDS011;9040;51.332;12.406;2022-08-03T12:36:03;11.30;;;2.20;;
17830;SDS011;9040;51.332;12.406;2022-08-03T12:38:32;11.03;;;2.07;;
17830;SDS011;9040;51.332;12.406;2022-08-03T12:41:01;4.47;;;1.40;;
17830;SDS011;9040;51.332;12.406;2022-08-03T12:43:29;6.20;;;1.80;;
17830;SDS011;9040;51.332;12.406;2022-08-03T12:46:11;7.27;;;1.33;;
17830;SDS011;9040;51.332;12.406;2022-08-03T12:49:06;13.17;;;2.77;;
17830;SDS011;9040;51.332;12.406;2022-08-03T12:51:36;14.70;;;1.40;;
17830;SDS011;9040;51.332;12.406;2022-08-03T12:54:04;3.03;;;1.30;;
17830;SDS011;9040;51.332;12.406;2022-08-03T12:56:31;2.50;;;1.50;;
17830;SDS011;9040;51.332;12.406;2022-08-03T12:58:58;6.60;;;1.27;;
17830;SDS011;9040;51.332;12.406;2022-08-03T13:01:25;7.80;;;1.30;;
17830;SDS011;9040;51.332;12.406;2022-08-03T13:04:02;2.40;;;0.97;;
17830;SDS011;9040;51.332;12.406;2022-08-03T13:06:30;4.00;;;3.20;;
17830;SDS011;9040;51.332;12.406;2022-08-03T13:09:01;1.33;;;1.17;;
17830;SDS011;9040;51.332;12.406;2022-08-03T13:11:29;0.83;;;0.60;;
17830;SDS011;9040;51.332;12.406;2022-08-03T13:13:56;1.90;;;1.13;;
17830;SDS011;9040;51.332;12.406;2022-08-03T13:16:23;2.80;;;1.50;;
17830;SDS011;9040;51.332;12.406;2022-08-03T13:18:50;3.30;;;1.67;;
17830;SDS011;9040;51.332;12.406;2022-08-03T13:21:19;9.03;;;0.97;;
17830;SDS011;9040;51.332;12.406;2022-08-03T13:23:47;3.20;;;1.40;;
17830;SDS011;9040;51.332;12.406;2022-08-03T13:26:14;1.10;;;0.90;;
17830;SDS011;9040;51.332;12.406;2022-08-03T13:28:41;5.20;;;1.53;;
17830;SDS011;9040;51.332;12.406;2022-08-03T13:31:08;7.80;;;1.03;;
17830;SDS011;9040;51.332;12.406;2022-08-03T13:33:35;1.60;;;0.80;;
17830;SDS011;9040;51.332;12.406;2022-08-03T13:36:04;4.63;;;1.13;;
17830;SDS011;9040;51.332;12.406;2022-08-03T13:38:33;1.40;;;1.30;;
17830;SDS011;9040;51.332;12.406;2022-08-03T13:41:00;1.80;;;1.00;;
17830;SDS011;9040;51.332;12.406;2022-08-03T13:43:28;4.67;;;1.00;;
17830;SDS011;9040;51.332;12.406;2022-08-03T13:45:55;0.70;;;0.70;;
17830;SDS011;9040;51.332;12.406;2022-08-03T13:48:21;2.30;;;0.80;;
17830;SDS011;9040;51.332;12.406;2022-08-03T13:50:48;3.37;;;1.03;;
17830;SDS011;9040;51.332;12.406;2022-08-03T13:53:15;0.70;;;0.70;;
17830;SDS011;9040;51.332;12.406;2022-08-03T13:55:43;6.83;;;0.80;;
17830;SDS011;9040;51.332;12.406;2022-08-03T13:58:10;5.20;;;2.07;;
17830;SDS011;9040;51.332;12.406;2022-08-03T14:00:37;3.27;;;0.80;;
17830;SDS011;9040;51.332;12.406;2022-08-03T14:03:05;3.20;;;0.80;;
17830;SDS011;9040;51.332;12.406;2022-08-03T14:05:32;12.10;;;0.93;;
17830;SDS011;9040;51.332;12.406;2022-08-03T14:07:59;2.87;;;0.60;;
17830;SDS011;9040;51.332;12.406;2022-08-03T14:10:29;3.80;;;0.80;;
17830;SDS011;9040;51.332;12.406;2022-08-03T14:12:57;2.67;;;0.80;;
17830;SDS011;9040;51.332;12.406;2022-08-03T14:15:25;3.93;;;0.90;;
17830;SDS011;9040;51.332;12.406;2022-08-03T14:17:52;4.57;;;0.90;;
17830;SDS011;9040;51.332;12.406;2022-08-03T14:20:20;2.70;;;0.90;;
17830;SDS011;9040;51.332;12.406;2022-08-03T14:22:47;3.37;;;0.97;;
17830;SDS011;9040;51.332;12.406;2022-08-03T14:25:14;6.03;;;1.30;;
17830;SDS011;9040;51.332;12.406;2022-08-03T14:27:41;2.00;;;1.20;;
17830;SDS011;9040;51.332;12.406;2022-08-03T14:30:10;4.30;;;0.80;;
17830;SDS011;9040;51.332;12.406;2022-08-03T14:32:37;5.63;;;0.90;;
17830;SDS011;9040;51.332;12.406;2022-08-03T14:35:04;3.20;;;0.80;;
17830;SDS011;9040;51.332;12.406;2022-08-03T14:37:32;3.13;;;1.20;;
17830;SDS011;9040;51.332;12.406;2022-08-03T14:39:59;2.97;;;1.10;;
17830;SDS011;9040;51.332;12.406;2022-08-03T14:42:26;1.27;;;0.70;;
17830;SDS011;9040;51.332;12.406;2022-08-03T14:44:53;2.23;;;0.70;;
17830;SDS011;9040;51.332;12.406;2022-08-03T14:47:22;11.43;;;0.90;;
17830;SDS011;9040;51.332;12.406;2022-08-03T14:49:48;1.13;;;0.93;;
17830;SDS011;9040;51.332;12.406;2022-08-03T14:52:15;0.90;;;0.87;;
17830;SDS011;9040;51.332;12.406;2022-08-03T14:54:43;1.53;;;0.90;;
17830;SDS011;9040;51.332;12.406;2022-08-03T14:57:10;5.67;;;1.20;;
17830;SDS011;9040;51.332;12.406;2022-08-03T14:59:37;4.53;;;0.97;;
17830;SDS011;9040;51.332;12.406;2022-08-03T15:02:04;1.67;;;1.20;;
17830;SDS011;9040;51.332;12.406;2022-08-03T15:04:32;3.10;;;1.00;;
17830;SDS011;9040;51.332;12.406;2022-08-03T15:06:59;8.10;;;1.23;;